createdAt,value
2018-06-24T00:01:29.956Z,63.84
2018-06-24T00:04:00.753Z,64.55
2018-06-24T00:06:31.536Z,64.61
2018-06-24T00:09:01.362Z,64.66
2018-06-24T00:11:30.969Z,65.27
2018-06-24T00:14:00.712Z,64.94
2018-06-24T00:16:31.336Z,65.38
2018-06-24T00:19:01.640Z,65.53
2018-06-24T00:21:32.033Z,65.56
2018-06-24T00:24:01.759Z,66.01
2018-06-24T00:26:31.848Z,66.08
2018-06-24T00:29:01.807Z,66.00
2018-06-24T00:31:32.220Z,65.92
2018-06-24T00:34:02.009Z,66.22
2018-06-24T00:36:32.848Z,66.12
2018-06-24T00:39:03.064Z,65.71
2018-06-24T00:41:32.779Z,65.24
2018-06-24T00:44:02.646Z,65.51
2018-06-24T00:46:33.367Z,65.63
2018-06-24T00:49:05.540Z,65.73
2018-06-24T00:51:35.196Z,65.61
2018-06-24T00:54:04.971Z,65.84
2018-06-24T00:56:34.774Z,65.87
2018-06-24T00:59:05.229Z,66.15
2018-06-24T01:01:34.952Z,66.02
2018-06-24T01:04:05.572Z,66.26
2018-06-24T01:06:36.031Z,66.58
2018-06-24T01:09:07.238Z,66.58
2018-06-24T01:11:36.933Z,66.64
2018-06-24T01:14:06.288Z,66.75
2018-06-24T01:16:36.978Z,66.69
2018-06-24T01:19:06.326Z,66.62
2018-06-24T01:21:35.980Z,66.52
2018-06-24T01:24:06.999Z,66.31
2018-06-24T01:26:37.535Z,66.47
2018-06-24T01:29:07.431Z,66.69
2018-06-24T01:31:37.192Z,66.89
2018-06-24T01:34:06.869Z,66.79
2018-06-24T01:36:36.610Z,67.13
2018-06-24T01:39:09.205Z,66.99
2018-06-24T01:41:39.765Z,67.08
2018-06-24T01:44:10.488Z,67.11
2018-06-24T01:46:41.453Z,67.48
2018-06-24T01:49:11.691Z,67.49
2018-06-24T01:51:41.999Z,67.77
2018-06-24T01:54:11.651Z,67.73
2018-06-24T01:56:42.246Z,67.94
2018-06-24T01:59:12.010Z,68.09
2018-06-24T02:01:42.781Z,67.95
2018-06-24T02:04:13.435Z,67.83
2018-06-24T02:06:43.525Z,67.57
2018-06-24T02:09:13.972Z,67.67
2018-06-24T02:11:43.747Z,67.75
2018-06-24T02:14:13.382Z,67.65
2018-06-24T02:16:43.385Z,67.81
2018-06-24T02:19:13.078Z,68.36
2018-06-24T02:21:43.367Z,68.65
2018-06-24T02:24:13.832Z,68.13
2018-06-24T02:26:43.776Z,68.39
2018-06-24T02:29:15.183Z,68.51
2018-06-24T02:31:45.260Z,68.29
2018-06-24T02:34:15.260Z,68.95
2018-06-24T02:36:45.174Z,68.31
2018-06-24T02:39:15.583Z,68.32
2018-06-24T02:41:45.690Z,68.81
2018-06-24T02:44:15.565Z,68.63
2018-06-24T02:46:45.348Z,68.51
2018-06-24T02:49:15.979Z,68.88
2018-06-24T02:51:45.875Z,68.95
2018-06-24T02:54:15.615Z,69.40
2018-06-24T02:56:45.299Z,69.45
2018-06-24T02:59:15.764Z,69.63
2018-06-24T03:01:45.947Z,69.98
2018-06-24T03:04:15.601Z,70.37
2018-06-24T03:06:45.784Z,70.17
2018-06-24T03:09:15.591Z,70.35
2018-06-24T03:11:46.209Z,70.25
2018-06-24T03:14:17.088Z,70.37
2018-06-24T03:16:46.855Z,70.63
2018-06-24T03:19:16.477Z,70.41
2018-06-24T03:21:46.348Z,69.99
2018-06-24T03:24:19.477Z,69.97
2018-06-24T03:26:49.118Z,69.88
2018-06-24T03:29:18.901Z,70.20
2018-06-24T03:31:49.595Z,69.93
2018-06-24T03:34:19.303Z,69.58
2018-06-24T03:36:49.453Z,70.15
2018-06-24T03:39:19.221Z,70.20
2018-06-24T03:41:49.001Z,70.53
2018-06-24T03:44:18.778Z,69.54
2018-06-24T03:46:50.020Z,69.53
2018-06-24T03:49:19.681Z,69.70
2018-06-24T03:51:50.469Z,69.91
2018-06-24T03:54:20.243Z,69.72
2018-06-24T03:56:50.455Z,69.89
2018-06-24T03:59:20.177Z,69.63
2018-06-24T04:01:49.545Z,69.93
2018-06-24T04:04:21.297Z,70.11
2018-06-24T04:06:51.204Z,70.42
2018-06-24T04:09:20.888Z,69.78
2018-06-24T04:11:52.384Z,69.85
2018-06-24T04:14:22.168Z,69.64
2018-06-24T04:16:51.907Z,69.88
2018-06-24T04:19:22.284Z,69.55
2018-06-24T04:21:52.219Z,69.84
2018-06-24T04:24:21.925Z,69.83
2018-06-24T04:26:51.689Z,69.57
2018-06-24T04:29:21.474Z,69.53
2018-06-24T04:31:51.750Z,69.97
2018-06-24T04:34:21.761Z,69.86
2018-06-24T04:36:51.591Z,70.15
2018-06-24T04:39:22.219Z,70.47
2018-06-24T04:41:53.313Z,70.17
2018-06-24T04:44:24.092Z,70.16
2018-06-24T04:46:54.784Z,70.30
2018-06-24T04:49:25.096Z,69.63
2018-06-24T04:51:55.186Z,69.87
2018-06-24T04:54:24.835Z,70.27
2018-06-24T04:56:54.884Z,70.81
2018-06-24T04:59:24.593Z,70.82
2018-06-24T05:01:55.042Z,71.14
2018-06-24T05:04:25.096Z,70.81
2018-06-24T05:06:54.907Z,70.98
2018-06-24T05:09:24.514Z,70.95
2018-06-24T05:11:55.167Z,70.59
2018-06-24T05:14:26.051Z,70.33
2018-06-24T05:16:56.175Z,70.24
2018-06-24T05:19:26.302Z,69.90
2018-06-24T05:21:56.464Z,70.22
2018-06-24T05:24:26.918Z,70.09
2018-06-24T05:26:57.476Z,70.00
2018-06-24T05:29:27.053Z,70.50
2018-06-24T05:31:57.366Z,70.59
2018-06-24T05:34:28.143Z,70.26
2018-06-24T05:36:58.294Z,70.36
2018-06-24T05:39:28.443Z,70.62
2018-06-24T05:41:58.074Z,70.53
2018-06-24T05:44:28.496Z,70.21
2018-06-24T05:46:58.548Z,70.09
2018-06-24T05:49:29.089Z,69.84
2018-06-24T05:51:58.925Z,69.66
2018-06-24T05:54:29.648Z,69.99
2018-06-24T05:56:59.908Z,69.97
2018-06-24T05:59:29.775Z,70.18
2018-06-24T06:01:59.708Z,70.70
2018-06-24T06:04:31.485Z,70.87
2018-06-24T06:07:02.088Z,71.13
2018-06-24T06:09:33.435Z,70.26
2018-06-24T06:12:04.174Z,71.25
2018-06-24T06:14:34.195Z,71.14
2018-06-24T06:17:04.592Z,71.14
2018-06-24T06:19:34.256Z,70.91
2018-06-24T06:22:04.282Z,70.93
2018-06-24T06:24:34.437Z,71.27
2018-06-24T06:27:04.830Z,70.90
2018-06-24T06:29:35.332Z,69.95
2018-06-24T06:32:05.113Z,70.12
2018-06-24T06:34:35.970Z,70.30
2018-06-24T06:37:06.670Z,70.49
2018-06-24T06:39:36.469Z,70.57
2018-06-24T06:42:07.839Z,70.14
2018-06-24T06:44:37.471Z,70.75
2018-06-24T06:47:09.392Z,70.64
2018-06-24T06:49:39.104Z,71.66
2018-06-24T06:52:08.875Z,71.38
2018-06-24T06:54:39.261Z,71.84
2018-06-24T06:57:10.235Z,70.95
2018-06-24T06:59:42.195Z,71.43
2018-06-24T07:02:12.709Z,71.23
2018-06-24T07:04:43.420Z,70.96
2018-06-24T07:07:14.209Z,70.69
2018-06-24T07:09:43.810Z,70.52
2018-06-24T07:12:13.876Z,70.60
2018-06-24T07:14:45.274Z,71.53
2018-06-24T07:17:15.022Z,71.33
2018-06-24T07:19:46.300Z,71.52
2018-06-24T07:22:15.936Z,71.07
2018-06-24T07:24:45.581Z,70.62
2018-06-24T07:27:15.199Z,71.05
2018-06-24T07:29:45.962Z,71.16
2018-06-24T07:32:17.163Z,70.77
2018-06-24T07:34:48.313Z,70.55
2018-06-24T07:37:21.147Z,70.07
2018-06-24T07:39:50.853Z,70.01
2018-06-24T07:42:20.509Z,70.01
2018-06-24T07:44:50.842Z,69.81
2018-06-24T07:47:21.695Z,69.57
2018-06-24T07:49:53.079Z,69.95
2018-06-24T07:52:27.956Z,69.35
2018-06-24T07:54:58.937Z,68.56
2018-06-24T07:57:30.496Z,68.50
2018-06-24T08:00:03.332Z,67.38
2018-06-24T08:02:33.068Z,67.43
2018-06-24T08:05:04.815Z,67.05
2018-06-24T08:07:35.478Z,66.82
2018-06-24T08:10:05.765Z,66.59
2018-06-24T08:12:36.377Z,66.11
2018-06-24T08:15:07.646Z,65.87
2018-06-24T08:17:38.064Z,65.53
2018-06-24T08:20:08.693Z,65.42
2018-06-24T08:22:38.506Z,65.19
2018-06-24T08:25:10.453Z,65.42
2018-06-24T08:27:42.883Z,65.07
2018-06-24T08:30:17.263Z,63.75
2018-06-24T08:32:48.734Z,64.43
2018-06-24T08:35:20.155Z,63.92
2018-06-24T08:37:53.049Z,63.76
2018-06-24T08:40:23.507Z,63.28
2018-06-24T08:42:54.990Z,63.87
2018-06-24T08:45:25.906Z,64.01
2018-06-24T08:47:57.240Z,63.80
2018-06-24T08:50:28.462Z,63.28
2018-06-24T08:52:58.887Z,63.36
2018-06-24T08:55:31.578Z,63.61
2018-06-24T08:58:06.956Z,62.96
2018-06-24T09:00:39.916Z,63.18
2018-06-24T09:03:11.495Z,62.73
2018-06-24T09:05:42.674Z,63.34
2018-06-24T09:08:13.536Z,63.96
2018-06-24T09:10:44.375Z,64.15
2018-06-24T09:13:15.265Z,64.09
2018-06-24T09:15:46.229Z,64.69
2018-06-24T09:18:18.771Z,64.99
2018-06-24T09:20:49.807Z,64.02
2018-06-24T09:23:21.377Z,64.38
2018-06-24T09:25:51.965Z,64.09
2018-06-24T09:28:21.890Z,62.35
2018-06-24T09:30:52.544Z,61.71
2018-06-24T09:33:23.085Z,61.86
2018-06-24T09:35:53.075Z,62.32
2018-06-24T09:38:23.330Z,62.98
2018-06-24T09:40:54.791Z,62.96
2018-06-24T09:43:25.659Z,62.91
2018-06-24T09:45:55.346Z,63.49
2018-06-24T09:48:28.104Z,63.38
2018-06-24T09:50:58.901Z,64.03
2018-06-24T09:53:28.687Z,66.21
2018-06-24T09:55:58.972Z,67.00
2018-06-24T09:58:29.854Z,67.13
2018-06-24T10:01:01.658Z,66.94
2018-06-24T10:03:33.292Z,66.52
2018-06-24T10:06:05.545Z,65.87
2018-06-24T10:08:36.826Z,65.58
2018-06-24T10:11:07.709Z,64.74
2018-06-24T10:13:38.806Z,64.20
2018-06-24T10:16:10.704Z,63.87
2018-06-24T10:18:40.948Z,64.59
2018-06-24T10:21:12.241Z,65.35
2018-06-24T10:23:43.443Z,64.46
2018-06-24T10:26:14.854Z,65.09
2018-06-24T10:28:45.179Z,65.70
2018-06-24T10:31:15.578Z,65.74
2018-06-24T10:33:47.512Z,65.95
2018-06-24T10:36:19.869Z,66.29
2018-06-24T10:38:53.174Z,66.80
2018-06-24T10:41:22.855Z,66.39
2018-06-24T10:43:53.826Z,67.08
2018-06-24T10:46:24.692Z,67.32
2018-06-24T10:48:56.236Z,68.10
2018-06-24T10:51:26.460Z,69.25
2018-06-24T10:53:56.288Z,69.31
2018-06-24T10:56:26.391Z,69.13
2018-06-24T10:58:57.569Z,68.06
2018-06-24T11:01:27.306Z,68.31
2018-06-24T11:03:58.863Z,68.29
2018-06-24T11:06:29.320Z,67.85
2018-06-24T11:08:59.216Z,67.89
2018-06-24T11:11:29.567Z,67.74
2018-06-24T11:14:00.331Z,67.74
2018-06-24T11:16:30.036Z,67.27
2018-06-24T11:18:59.686Z,66.43
2018-06-24T11:21:29.872Z,65.89
2018-06-24T11:24:00.542Z,65.47
2018-06-24T11:26:30.882Z,65.16
2018-06-24T11:29:00.948Z,64.75
2018-06-24T11:31:30.793Z,64.83
2018-06-24T11:34:00.504Z,64.94
2018-06-24T11:36:30.865Z,64.93
2018-06-24T11:39:00.569Z,64.95
2018-06-24T11:41:32.193Z,64.86
2018-06-24T11:44:01.857Z,65.27
2018-06-24T11:46:31.598Z,66.14
2018-06-24T11:49:01.878Z,65.71
2018-06-24T11:51:32.273Z,65.62
2018-06-24T11:54:03.017Z,65.80
2018-06-24T11:56:32.668Z,65.44
2018-06-24T11:59:02.553Z,65.80
2018-06-24T12:01:32.611Z,65.86
2018-06-24T12:04:02.861Z,66.07
2018-06-24T12:06:35.578Z,66.02
2018-06-24T12:09:09.003Z,66.17
2018-06-24T12:11:38.918Z,66.17
2018-06-24T12:14:11.425Z,66.57
2018-06-24T12:16:42.152Z,67.03
2018-06-24T12:19:12.814Z,67.07
2018-06-24T12:21:44.128Z,67.57
2018-06-24T12:24:14.597Z,67.47
2018-06-24T12:26:44.327Z,67.60
2018-06-24T12:29:14.259Z,67.92
2018-06-24T12:31:43.996Z,68.64
2018-06-24T12:34:14.098Z,68.83
2018-06-24T12:36:44.981Z,68.89
2018-06-24T12:39:17.596Z,68.62
2018-06-24T12:41:48.381Z,68.09
2018-06-24T12:44:18.222Z,67.30
2018-06-24T12:46:49.085Z,67.60
2018-06-24T12:49:19.885Z,68.05
2018-06-24T12:51:49.905Z,67.34
2018-06-24T12:54:19.778Z,67.41
2018-06-24T12:56:50.280Z,67.16
2018-06-24T12:59:20.690Z,67.18
2018-06-24T13:01:50.871Z,67.64
2018-06-24T13:04:20.666Z,69.09
2018-06-24T13:06:50.924Z,70.56
2018-06-24T13:09:22.222Z,71.17
2018-06-24T13:11:52.152Z,72.86
2018-06-24T13:14:22.066Z,73.47
2018-06-24T13:16:52.192Z,74.03
2018-06-24T13:19:23.351Z,74.03
2018-06-24T13:21:53.133Z,74.09
2018-06-24T13:24:22.903Z,73.76
2018-06-24T13:26:53.092Z,74.14
2018-06-24T13:29:24.483Z,74.22
2018-06-24T13:31:54.491Z,73.44
2018-06-24T13:34:25.918Z,73.89
2018-06-24T13:36:55.658Z,74.15
2018-06-24T13:39:26.999Z,73.79
2018-06-24T13:41:59.054Z,74.78
2018-06-24T13:44:29.622Z,74.74
2018-06-24T13:47:01.046Z,75.01
2018-06-24T13:49:31.326Z,76.42
2018-06-24T13:52:01.667Z,77.71
2018-06-24T13:54:31.984Z,77.52
2018-06-24T13:57:01.717Z,77.45
2018-06-24T13:59:31.352Z,77.47
2018-06-24T14:02:01.046Z,77.45
2018-06-24T14:04:30.806Z,77.53
2018-06-24T14:07:02.289Z,77.24
2018-06-24T14:09:32.382Z,77.03
2018-06-24T14:12:02.127Z,77.35
2018-06-24T14:14:31.790Z,77.54
2018-06-24T14:17:01.590Z,77.53
2018-06-24T14:19:31.918Z,77.24
2018-06-24T14:22:02.289Z,78.04
2018-06-24T14:24:32.032Z,77.23
2018-06-24T14:27:02.258Z,77.96
2018-06-24T14:29:32.071Z,77.31
2018-06-24T14:32:01.915Z,77.37
2018-06-24T14:34:33.816Z,77.50
2018-06-24T14:37:03.569Z,77.42
2018-06-24T14:39:33.507Z,77.35
2018-06-24T14:42:04.919Z,77.20
2018-06-24T14:44:34.598Z,77.58
2018-06-24T14:47:04.858Z,77.20
2018-06-24T14:49:36.081Z,76.80
2018-06-24T14:52:06.752Z,77.04
2018-06-24T14:54:37.341Z,77.04
2018-06-24T14:57:07.445Z,76.94
2018-06-24T14:59:37.167Z,76.32
2018-06-24T15:02:07.974Z,76.77
2018-06-24T15:04:37.663Z,76.46
2018-06-24T15:07:07.418Z,76.47
2018-06-24T15:09:37.114Z,76.54
2018-06-24T15:12:06.910Z,75.73
2018-06-24T15:14:37.353Z,75.05
2018-06-24T15:17:12.899Z,76.60
2018-06-24T15:19:42.654Z,76.21
2018-06-24T15:22:12.399Z,76.69
2018-06-24T15:24:42.074Z,75.66
2018-06-24T15:27:12.042Z,75.94
2018-06-24T15:29:42.628Z,75.74
2018-06-24T15:32:12.515Z,75.79
2018-06-24T15:34:42.235Z,76.24
2018-06-24T15:37:16.563Z,75.62
2018-06-24T15:39:47.540Z,75.55
2018-06-24T15:42:17.492Z,75.78
2018-06-24T15:44:47.924Z,76.11
2018-06-24T15:47:18.609Z,76.22
2018-06-24T15:49:48.634Z,75.41
2018-06-24T15:52:18.556Z,75.91
2018-06-24T15:54:48.401Z,75.39
2018-06-24T15:57:18.258Z,76.03
2018-06-24T15:59:48.030Z,76.28
2018-06-24T16:02:17.751Z,75.97
2018-06-24T16:04:47.418Z,76.09
2018-06-24T16:07:17.880Z,75.93
2018-06-24T16:09:48.379Z,75.58
2018-06-24T16:12:18.134Z,75.21
2018-06-24T16:14:51.700Z,75.93
2018-06-24T16:17:21.537Z,76.15
2018-06-24T16:19:51.641Z,76.89
2018-06-24T16:22:22.299Z,76.84
2018-06-24T16:24:53.449Z,76.83
2018-06-24T16:27:23.791Z,77.35
2018-06-24T16:29:53.550Z,77.47
2018-06-24T16:32:24.132Z,77.49
2018-06-24T16:34:53.978Z,77.88
2018-06-24T16:37:23.760Z,77.85
2018-06-24T16:39:54.242Z,77.75
2018-06-24T16:42:23.989Z,78.31
2018-06-24T16:44:54.673Z,78.48
2018-06-24T16:47:24.386Z,78.93
2018-06-24T16:49:54.269Z,79.25
2018-06-24T16:52:24.613Z,80.19
2018-06-24T16:54:54.317Z,79.77
2018-06-24T16:57:24.598Z,79.70
2018-06-24T16:59:55.109Z,79.79
2018-06-24T17:02:24.836Z,80.10
2018-06-24T17:04:54.905Z,80.19
2018-06-24T17:07:25.058Z,80.51
2018-06-24T17:09:55.547Z,80.44
2018-06-24T17:12:25.379Z,80.47
2018-06-24T17:14:55.123Z,80.52
2018-06-24T17:17:25.799Z,80.74
2018-06-24T17:19:56.636Z,80.90
2018-06-24T17:22:27.429Z,80.89
2018-06-24T17:24:58.693Z,80.74
2018-06-24T17:27:29.187Z,80.73
2018-06-24T17:30:00.160Z,80.85
2018-06-24T17:32:29.483Z,80.86
2018-06-24T17:34:59.274Z,81.28
2018-06-24T17:37:29.365Z,81.37
2018-06-24T17:39:59.173Z,81.01
2018-06-24T17:42:29.525Z,81.06
2018-06-24T17:44:59.163Z,81.31
2018-06-24T17:47:29.004Z,81.86
2018-06-24T17:49:58.741Z,81.72
2018-06-24T17:52:29.404Z,82.04
2018-06-24T17:55:00.662Z,81.46
2018-06-24T17:57:30.567Z,81.51
2018-06-24T18:00:00.292Z,81.24
2018-06-24T18:02:30.107Z,81.29
2018-06-24T18:04:59.840Z,81.15
2018-06-24T18:07:29.584Z,81.45
2018-06-24T18:09:59.463Z,81.55
2018-06-24T18:12:29.475Z,81.12
2018-06-24T18:14:59.163Z,81.30
2018-06-24T18:17:28.489Z,81.33
2018-06-24T18:19:58.199Z,81.27
2018-06-24T18:22:27.985Z,81.13
2018-06-24T18:24:57.713Z,80.86
2018-06-24T18:27:27.494Z,80.93
2018-06-24T18:29:57.273Z,80.80
2018-06-24T18:32:27.115Z,81.02
2018-06-24T18:34:56.553Z,80.96
2018-06-24T18:37:26.442Z,81.33
2018-06-24T18:39:56.597Z,80.85
2018-06-24T18:42:26.434Z,80.81
2018-06-24T18:44:56.084Z,80.74
2018-06-24T18:47:25.832Z,80.71
2018-06-24T18:49:55.678Z,80.55
2018-06-24T18:52:25.417Z,79.93
2018-06-24T18:54:55.273Z,80.11
2018-06-24T18:57:25.207Z,80.59
2018-06-24T18:59:54.994Z,80.59
2018-06-24T19:02:24.824Z,80.71
2018-06-24T19:04:55.218Z,80.35
2018-06-24T19:07:24.882Z,80.45
2018-06-24T19:09:54.363Z,80.27
2018-06-24T19:12:24.075Z,80.20
2018-06-24T19:14:54.624Z,80.55
2018-06-24T19:17:24.365Z,80.45
2018-06-24T19:19:54.114Z,80.07
2018-06-24T19:22:24.201Z,79.75
2018-06-24T19:24:55.319Z,80.38
2018-06-24T19:27:25.141Z,80.22
2018-06-24T19:29:54.893Z,79.69
2018-06-24T19:32:25.332Z,79.83
2018-06-24T19:34:55.194Z,79.95
2018-06-24T19:37:24.908Z,80.00
2018-06-24T19:39:54.648Z,80.16
2018-06-24T19:42:24.613Z,79.83
2018-06-24T19:44:54.320Z,79.30
2018-06-24T19:47:24.040Z,79.48
2018-06-24T19:49:53.803Z,79.53
2018-06-24T19:53:52.606Z,79.65
2018-06-24T19:56:22.354Z,79.21
2018-06-24T19:58:52.178Z,79.28
2018-06-24T20:01:22.033Z,78.95
2018-06-24T20:03:52.425Z,79.44
2018-06-24T20:06:22.274Z,79.38
2018-06-24T20:08:52.198Z,79.53
2018-06-24T20:11:21.958Z,79.25
2018-06-24T20:13:52.326Z,79.27
2018-06-24T20:16:23.341Z,79.35
2018-06-24T20:18:53.766Z,79.21
2018-06-24T20:21:23.682Z,78.90
2018-06-24T20:23:53.402Z,79.31
2018-06-24T20:26:23.069Z,79.29
2018-06-24T20:28:52.884Z,79.06
2018-06-24T20:31:22.570Z,79.12
2018-06-24T20:33:52.272Z,79.10
2018-06-24T20:36:21.984Z,78.62
2018-06-24T20:38:51.800Z,79.01
2018-06-24T20:41:21.506Z,78.48
2018-06-24T20:43:51.358Z,78.92
2018-06-24T20:46:21.201Z,79.03
2018-06-24T20:48:51.084Z,79.02
2018-06-24T20:51:20.814Z,79.43
2018-06-24T20:53:50.978Z,79.47
2018-06-24T20:56:20.866Z,80.11
2018-06-24T20:58:50.653Z,79.59
2018-06-24T21:01:20.443Z,79.50
2018-06-24T21:03:50.189Z,79.71
2018-06-24T21:06:19.915Z,79.75
2018-06-24T21:08:49.724Z,79.50
2018-06-24T21:11:19.542Z,79.05
2018-06-24T21:13:50.009Z,78.88
2018-06-24T21:16:19.771Z,78.46
2018-06-24T21:18:49.738Z,78.67
2018-06-24T21:21:19.586Z,78.26
2018-06-24T21:23:49.770Z,78.52
2018-06-24T21:26:19.493Z,78.52
2018-06-24T21:28:49.214Z,78.87
2018-06-24T21:31:19.359Z,78.46
2018-06-24T21:33:49.095Z,78.83
2018-06-24T21:36:18.931Z,78.55
2018-06-24T21:38:48.562Z,78.56
2018-06-24T21:41:18.259Z,78.44
2018-06-24T21:43:47.933Z,78.39
2018-06-24T21:46:17.660Z,78.59
2018-06-24T21:48:48.018Z,78.27
2018-06-24T21:51:17.935Z,78.07
2018-06-24T21:53:48.466Z,78.43
2018-06-24T21:56:18.556Z,78.17
2018-06-24T21:58:48.836Z,78.35
2018-06-24T22:01:18.626Z,77.84
2018-06-24T22:03:49.579Z,78.12
2018-06-24T22:06:19.285Z,78.08
2018-06-24T22:08:49.011Z,78.43
2018-06-24T22:11:18.843Z,78.02
2018-06-24T22:13:48.555Z,78.08
2018-06-24T22:16:18.279Z,78.26
2018-06-24T22:18:48.007Z,78.46
2018-06-24T22:21:17.883Z,78.71
2018-06-24T22:23:48.076Z,78.68
2018-06-24T22:26:18.020Z,78.36
2018-06-24T22:28:48.001Z,78.68
2018-06-24T22:31:17.729Z,78.22
2018-06-24T22:33:47.666Z,78.33
2018-06-24T22:36:17.370Z,78.39
2018-06-24T22:38:47.217Z,78.23
2018-06-24T22:41:17.066Z,77.88
2018-06-24T22:43:47.358Z,77.94
2018-06-24T22:46:16.985Z,77.83
2018-06-24T22:48:46.312Z,78.10
2018-06-24T22:51:16.274Z,77.86
2018-06-24T22:53:45.916Z,77.94
2018-06-24T22:56:16.832Z,77.93
2018-06-24T22:59:03.492Z,77.94
2018-06-24T23:01:34.156Z,78.10
2018-06-24T23:04:03.911Z,78.08
2018-06-24T23:06:33.536Z,77.99
2018-06-24T23:09:04.376Z,77.75
2018-06-24T23:11:34.087Z,77.90
2018-06-24T23:14:04.383Z,77.77
2018-06-24T23:16:34.279Z,77.79
2018-06-24T23:19:04.068Z,77.46
2018-06-24T23:21:33.728Z,77.68
2018-06-24T23:24:03.296Z,77.92
2018-06-24T23:26:32.934Z,78.05
2018-06-24T23:29:02.558Z,77.92
2018-06-24T23:31:32.261Z,77.84
2018-06-24T23:34:01.943Z,77.53
2018-06-24T23:36:31.883Z,77.55
2018-06-24T23:39:01.654Z,77.64
2018-06-24T23:41:31.305Z,78.31
2018-06-24T23:44:01.052Z,77.84
2018-06-24T23:46:30.902Z,78.05
2018-06-24T23:49:00.637Z,77.94
2018-06-24T23:51:30.447Z,78.13
2018-06-24T23:54:00.384Z,77.80
2018-06-24T23:56:30.571Z,77.96
2018-06-24T23:59:00.385Z,78.15
